Time;durP1;ratioP1;P1;durP2;ratioP2;P2;SDS_P1;SDS_P2;PMS_P1;PMS_P2;Temp;Humidity;BMP_temperature;BMP_pressure;BME280_temperature;BME280_humidity;BME280_pressure;Samples;Min_cycle;Max_cycle;Signal;HPM_P1;HPM_P2
2020/12/04 00:01:38;;;;;;;11.20;7.23;;;5.20;99.90;;;;;;5052212;28;20293;-76
2020/12/04 00:04:05;;;;;;;6.43;5.80;;;5.20;99.90;;;;;;5049606;28;20301;-76
2020/12/04 00:06:33;;;;;;;7.30;6.17;;;5.20;99.90;;;;;;5054065;28;20319;-77
2020/12/04 00:09:00;;;;;;;7.67;5.67;;;5.30;99.90;;;;;;5035053;28;20415;-76
2020/12/04 00:11:27;;;;;;;6.73;5.90;;;5.40;99.90;;;;;;5050009;28;20488;-76
2020/12/04 00:13:52;;;;;;;8.67;6.63;;;5.50;99.90;;;;;;5049836;28;20490;-76
2020/12/04 00:16:18;;;;;;;7.90;5.93;;;5.40;99.90;;;;;;5050041;28;20470;-76
2020/12/04 00:18:44;;;;;;;7.63;5.53;;;5.40;99.90;;;;;;5050348;28;20398;-76
2020/12/04 00:21:12;;;;;;;11.10;7.00;;;5.40;99.90;;;;;;5040153;28;20209;-77
2020/12/04 00:23:39;;;;;;;7.30;5.67;;;5.30;99.90;;;;;;5052139;28;20449;-76
2020/12/04 00:26:04;;;;;;;7.00;6.20;;;5.30;99.90;;;;;;5049960;28;20444;-76
2020/12/04 00:28:30;;;;;;;5.83;5.23;;;5.20;99.90;;;;;;5038247;28;20428;-76
2020/12/04 00:30:56;;;;;;;6.93;5.60;;;5.20;99.90;;;;;;5055425;28;20229;-76
2020/12/04 00:33:21;;;;;;;7.87;5.60;;;5.20;99.90;;;;;;5033981;28;20324;-76
2020/12/04 00:35:47;;;;;;;7.47;5.43;;;5.10;99.90;;;;;;5050721;28;20194;-76
2020/12/04 00:38:12;;;;;;;6.27;5.60;;;5.10;99.90;;;;;;5032441;28;20210;-76
2020/12/04 00:40:38;;;;;;;7.63;5.57;;;5.10;99.90;;;;;;5047435;28;20309;-76
2020/12/04 00:43:04;;;;;;;8.13;6.00;;;5.00;99.90;;;;;;5046351;28;20241;-76
2020/12/04 00:45:29;;;;;;;7.03;5.00;;;5.00;99.90;;;;;;5046639;28;20202;-76
2020/12/04 00:47:55;;;;;;;8.00;6.17;;;5.00;99.90;;;;;;5049213;28;20677;-76
2020/12/04 00:50:21;;;;;;;7.70;6.40;;;4.90;99.90;;;;;;5044551;28;20210;-76
2020/12/04 00:52:47;;;;;;;6.23;5.30;;;4.90;99.90;;;;;;5045359;28;20927;-76
2020/12/04 00:55:15;;;;;;;8.23;6.03;;;4.90;99.90;;;;;;5053366;28;20203;-76
2020/12/04 00:57:41;;;;;;;6.77;6.13;;;4.90;99.90;;;;;;5051539;28;20712;-76
2020/12/04 01:00:06;;;;;;;7.03;5.47;;;4.90;99.90;;;;;;5049364;28;20405;-76
2020/12/04 01:02:32;;;;;;;7.93;6.60;;;5.00;99.90;;;;;;5046230;28;20693;-76
2020/12/04 01:04:58;;;;;;;12.20;6.90;;;5.00;99.90;;;;;;5048401;28;20675;-76
2020/12/04 01:07:24;;;;;;;6.80;5.83;;;4.90;99.90;;;;;;5025725;28;20705;-76
2020/12/04 01:09:49;;;;;;;8.93;7.47;;;4.80;99.90;;;;;;5033085;28;20431;-76
2020/12/04 01:12:15;;;;;;;9.47;5.70;;;4.90;99.90;;;;;;5049697;28;20224;-76
2020/12/04 01:14:41;;;;;;;8.73;6.30;;;4.80;99.90;;;;;;5046829;28;20810;-76
2020/12/04 01:17:07;;;;;;;6.17;5.50;;;4.80;99.90;;;;;;5043832;28;20305;-76
2020/12/04 01:19:32;;;;;;;8.60;6.70;;;4.80;99.90;;;;;;5047099;28;20211;-76
2020/12/04 01:21:58;;;;;;;8.60;6.40;;;4.80;99.90;;;;;;5048922;28;20216;-76
2020/12/04 01:24:23;;;;;;;10.00;5.43;;;4.80;99.90;;;;;;5049036;28;20288;-78
2020/12/04 01:26:49;;;;;;;7.43;6.73;;;4.90;99.90;;;;;;5048104;28;20657;-77
2020/12/04 01:29:15;;;;;;;7.80;6.30;;;4.80;99.90;;;;;;5049607;28;20210;-76
2020/12/04 01:31:45;;;;;;;7.90;6.40;;;4.80;99.90;;;;;;5049511;28;20202;-77
2020/12/04 01:34:11;;;;;;;7.20;6.37;;;4.80;99.90;;;;;;5046624;28;20677;-77
2020/12/04 01:36:36;;;;;;;6.47;5.00;;;4.90;99.90;;;;;;5042232;28;20564;-76
2020/12/04 01:39:02;;;;;;;6.77;5.20;;;4.90;99.90;;;;;;5047735;28;20215;-76
2020/12/04 01:41:32;;;;;;;7.70;5.10;;;5.00;99.90;;;;;;5047757;28;20206;-76
2020/12/04 01:43:58;;;;;;;4.77;4.33;;;5.10;99.90;;;;;;5029536;28;20206;-76
2020/12/04 01:46:24;;;;;;;7.80;4.87;;;5.20;99.90;;;;;;5047050;28;20436;-76
2020/12/04 01:48:49;;;;;;;7.00;5.70;;;5.20;99.90;;;;;;5029972;28;20236;-76
2020/12/04 01:51:16;;;;;;;6.73;5.40;;;5.10;99.90;;;;;;5046759;28;20206;-77
2020/12/04 01:53:44;;;;;;;5.63;5.13;;;5.10;99.90;;;;;;5048814;28;20252;-77
2020/12/04 01:56:10;;;;;;;7.43;5.57;;;5.10;99.90;;;;;;5030314;28;20400;-77
2020/12/04 01:58:36;;;;;;;6.80;6.13;;;5.10;99.90;;;;;;5047917;28;20387;-78
2020/12/04 02:01:04;;;;;;;6.43;4.57;;;5.10;99.90;;;;;;5026148;28;20455;-78
2020/12/04 02:03:30;;;;;;;5.73;4.63;;;5.10;99.90;;;;;;5045999;28;20322;-77
2020/12/04 02:05:58;;;;;;;4.87;3.80;;;5.10;99.90;;;;;;5044362;28;20420;-77
2020/12/04 02:08:27;;;;;;;6.47;4.80;;;5.10;99.90;;;;;;5045478;28;20229;-77
2020/12/04 02:11:03;;;;;;;5.70;4.00;;;5.20;99.90;;;;;;5046283;28;20415;-77
2020/12/04 02:13:30;;;;;;;4.93;4.40;;;5.10;99.90;;;;;;5056211;22;20411;-77
2020/12/04 02:15:56;;;;;;;5.27;4.40;;;5.00;99.90;;;;;;5060798;28;20998;-79
2020/12/04 02:18:21;;;;;;;7.50;4.57;;;5.00;99.90;;;;;;5049368;28;20514;-77
2020/12/04 02:20:58;;;;;;;9.00;5.10;;;5.10;99.90;;;;;;5032406;28;20214;-77
2020/12/04 02:23:25;;;;;;;6.10;4.70;;;5.10;99.90;;;;;;5050996;28;20725;-77
2020/12/04 02:25:50;;;;;;;5.07;4.47;;;5.10;99.90;;;;;;5067837;28;20434;-77
2020/12/04 02:28:16;;;;;;;7.20;5.60;;;5.10;99.90;;;;;;5051265;28;20526;-79
2020/12/04 02:31:06;;;;;;;5.20;4.70;;;5.10;99.90;;;;;;5033277;28;20209;-78
2020/12/04 02:33:33;;;;;;;7.23;4.90;;;5.10;99.90;;;;;;5038931;28;20377;-78
2020/12/04 02:35:59;;;;;;;7.53;5.63;;;5.00;99.90;;;;;;5049986;28;20419;-78
2020/12/04 02:38:25;;;;;;;6.83;5.63;;;5.10;99.90;;;;;;5035209;28;20408;-78
2020/12/04 02:40:52;;;;;;;6.07;5.37;;;5.10;99.90;;;;;;5067661;28;20509;-78
2020/12/04 02:43:18;;;;;;;12.00;4.63;;;5.10;99.90;;;;;;5053909;28;20409;-78
2020/12/04 02:45:45;;;;;;;5.30;4.80;;;5.10;99.90;;;;;;5053777;28;20500;-78
2020/12/04 02:48:12;;;;;;;5.70;4.77;;;5.10;99.90;;;;;;5054173;28;20411;-79
2020/12/04 02:50:38;;;;;;;6.33;4.90;;;5.10;99.90;;;;;;5048867;28;20406;-79
2020/12/04 02:53:04;;;;;;;5.53;4.97;;;5.20;99.90;;;;;;5052756;28;20396;-79
2020/12/04 02:55:31;;;;;;;4.50;4.10;;;5.10;99.90;;;;;;5051871;28;20282;-78
2020/12/04 02:57:57;;;;;;;5.33;4.20;;;5.10;99.90;;;;;;5070482;28;20414;-79
2020/12/04 03:00:24;;;;;;;6.07;4.40;;;5.10;99.90;;;;;;5038725;28;21917;-79
2020/12/04 03:02:49;;;;;;;3.77;3.47;;;5.00;99.90;;;;;;5054602;28;20461;-79
2020/12/04 03:05:15;;;;;;;6.47;5.43;;;5.10;99.90;;;;;;5054795;28;20500;-79
2020/12/04 03:07:41;;;;;;;5.27;4.60;;;5.10;99.90;;;;;;5052042;28;20216;-79
2020/12/04 03:10:07;;;;;;;5.03;4.60;;;5.20;99.90;;;;;;5056097;28;20490;-79
2020/12/04 03:12:41;;;;;;;7.00;5.03;;;5.20;99.90;;;;;;5054330;28;20426;-79
2020/12/04 03:15:07;;;;;;;4.47;4.07;;;5.30;99.90;;;;;;5016339;28;20425;-79
2020/12/04 03:17:33;;;;;;;4.13;3.73;;;5.30;99.90;;;;;;5031016;28;20453;-79
2020/12/04 03:19:59;;;;;;;5.83;3.90;;;5.30;99.90;;;;;;5035112;28;20394;-80
2020/12/04 03:22:26;;;;;;;4.37;3.40;;;5.50;99.90;;;;;;5013841;28;20424;-79
2020/12/04 03:24:53;;;;;;;7.23;3.97;;;5.50;99.90;;;;;;5031443;28;20198;-80
2020/12/04 03:27:19;;;;;;;5.67;4.70;;;5.50;99.90;;;;;;5030141;28;20819;-80
2020/12/04 03:29:47;;;;;;;4.87;4.30;;;5.60;99.90;;;;;;5032347;28;20455;-80
2020/12/04 03:32:15;;;;;;;5.13;4.13;;;5.60;99.90;;;;;;5048666;28;20491;-80
2020/12/04 03:34:41;;;;;;;5.47;4.43;;;5.60;99.90;;;;;;5013714;28;20474;-79
2020/12/04 03:37:30;;;;;;;5.40;4.27;;;5.70;99.90;;;;;;5016608;28;20970;-80
2020/12/04 03:39:56;;;;;;;6.50;4.47;;;5.70;99.90;;;;;;5009151;28;20430;-80
2020/12/04 03:42:24;;;;;;;3.90;3.50;;;5.80;99.90;;;;;;4994301;28;20404;-79
2020/12/04 03:44:49;;;;;;;4.60;3.27;;;5.80;99.90;;;;;;4980076;28;20226;-79
2020/12/04 03:47:42;;;;;;;5.23;3.77;;;5.90;99.90;;;;;;4977873;28;23062;-79
2020/12/04 03:50:10;;;;;;;3.90;3.43;;;6.00;99.90;;;;;;4887622;29;20410;-80
2020/12/04 03:52:36;;;;;;;5.70;2.93;;;5.90;99.90;;;;;;4903363;29;20509;-79
2020/12/04 03:55:03;;;;;;;3.87;2.40;;;6.00;99.90;;;;;;4911269;29;20504;-79
2020/12/04 03:57:29;;;;;;;3.23;3.00;;;6.00;99.90;;;;;;4914668;29;20211;-79
2020/12/04 03:59:55;;;;;;;4.77;3.30;;;6.10;99.90;;;;;;4897681;29;20946;-79
2020/12/04 04:02:21;;;;;;;3.67;3.00;;;6.20;99.90;;;;;;4915276;29;20831;-79
2020/12/04 04:04:46;;;;;;;3.63;2.93;;;6.10;99.90;;;;;;4902553;29;20353;-79
2020/12/04 04:07:13;;;;;;;4.17;3.20;;;6.20;99.90;;;;;;4896589;29;20222;-80
2020/12/04 04:09:39;;;;;;;3.17;2.87;;;6.20;99.90;;;;;;4901611;29;20215;-79
2020/12/04 04:12:05;;;;;;;3.87;3.47;;;6.30;99.90;;;;;;4895469;29;20411;-79
2020/12/04 04:14:30;;;;;;;4.53;3.73;;;6.30;99.90;;;;;;4881833;29;20223;-79
2020/12/04 04:16:56;;;;;;;3.50;3.20;;;6.20;99.90;;;;;;4914517;28;20441;-79
2020/12/04 04:19:48;;;;;;;3.53;2.80;;;6.20;99.90;;;;;;4936742;28;20297;-79
2020/12/04 04:22:14;;;;;;;4.77;3.70;;;6.30;99.90;;;;;;4894074;29;20869;-79
2020/12/04 04:24:39;;;;;;;3.83;3.03;;;6.30;99.90;;;;;;4896837;29;20596;-79
2020/12/04 04:27:06;;;;;;;2.83;2.63;;;6.30;99.90;;;;;;4924168;28;20220;-79
2020/12/04 04:29:32;;;;;;;4.10;3.20;;;6.30;99.90;;;;;;4975674;28;20204;-79
2020/12/04 04:31:59;;;;;;;5.13;3.30;;;6.10;99.90;;;;;;4974094;28;20397;-78
2020/12/04 04:34:25;;;;;;;3.27;2.97;;;6.10;99.90;;;;;;4972520;28;20215;-78
2020/12/04 04:36:51;;;;;;;4.03;3.63;;;6.00;99.90;;;;;;4988745;28;20446;-78
2020/12/04 04:39:18;;;;;;;3.40;2.90;;;6.00;99.90;;;;;;4988964;28;20299;-79
2020/12/04 04:41:44;;;;;;;4.07;3.60;;;5.90;99.90;;;;;;4972677;28;20381;-78
2020/12/04 04:44:13;;;;;;;5.57;4.60;;;5.80;99.90;;;;;;4971516;28;20421;-78
2020/12/04 04:46:47;;;;;;;3.87;3.40;;;5.80;99.90;;;;;;4988004;28;20481;-78
2020/12/04 04:49:27;;;;;;;7.73;4.10;;;5.80;99.90;;;;;;4970555;28;20574;-78
2020/12/04 04:51:56;;;;;;;4.77;4.00;;;5.70;99.90;;;;;;4987477;28;20412;-78
2020/12/04 04:54:24;;;;;;;4.93;3.80;;;5.80;99.90;;;;;;4974025;28;20408;-78
2020/12/04 04:56:51;;;;;;;4.67;3.80;;;5.80;99.90;;;;;;4955101;28;20447;-79
2020/12/04 04:59:21;;;;;;;4.67;3.70;;;5.70;99.90;;;;;;5019176;28;20435;-78
2020/12/04 05:01:49;;;;;;;6.07;4.10;;;5.70;99.90;;;;;;5028986;28;21470;-79
2020/12/04 05:04:16;;;;;;;6.57;4.90;;;5.80;99.90;;;;;;5013246;28;20392;-79
2020/12/04 05:06:42;;;;;;;5.47;4.60;;;5.80;99.90;;;;;;5029893;28;20391;-79
2020/12/04 05:09:14;;;;;;;4.50;3.83;;;5.90;99.90;;;;;;5044267;28;20407;-80
2020/12/04 05:11:57;;;;;;;3.33;3.03;;;5.80;99.90;;;;;;5029622;28;20400;-80
2020/12/04 05:14:24;;;;;;;5.10;4.30;;;5.80;99.90;;;;;;5037705;28;21347;-80
2020/12/04 05:16:57;;;;;;;3.70;3.40;;;5.90;99.90;;;;;;5047265;28;20456;-79
2020/12/04 05:19:39;;;;;;;4.60;4.07;;;6.00;99.90;;;;;;5029292;28;20431;-80
2020/12/04 05:22:27;;;;;;;4.77;4.27;;;6.00;99.90;;;;;;5048767;28;20404;-79
2020/12/04 05:24:53;;;;;;;4.30;3.83;;;6.10;99.90;;;;;;5031597;28;20430;-81
2020/12/04 05:27:30;;;;;;;5.33;4.87;;;6.10;99.90;;;;;;5018622;28;20408;-80
2020/12/04 05:30:01;;;;;;;4.53;3.40;;;6.10;99.90;;;;;;5048108;28;20427;-79
2020/12/04 05:32:27;;;;;;;5.03;4.03;;;6.20;99.90;;;;;;5049218;28;20392;-80
2020/12/04 05:35:11;;;;;;;4.43;3.87;;;6.20;99.90;;;;;;5034059;28;20542;-79
2020/12/04 05:37:39;;;;;;;7.03;4.63;;;6.30;99.90;;;;;;5036826;28;20446;-79
2020/12/04 05:40:06;;;;;;;4.20;3.80;;;6.30;99.90;;;;;;5048103;28;20865;-80
2020/12/04 05:42:34;;;;;;;3.63;3.33;;;6.40;99.90;;;;;;5031786;28;20427;-79
2020/12/04 05:45:00;;;;;;;3.57;3.10;;;6.50;99.90;;;;;;5031810;28;20391;-79
2020/12/04 05:47:38;;;;;;;3.80;2.83;;;6.50;99.90;;;;;;5046884;28;20383;-80
2020/12/04 05:50:06;;;;;;;4.23;3.30;;;6.50;99.90;;;;;;5046882;28;20479;-79
2020/12/04 05:52:35;;;;;;;3.43;3.13;;;6.50;99.90;;;;;;5045265;28;20381;-79
2020/12/04 05:55:04;;;;;;;4.20;3.30;;;6.60;99.90;;;;;;5032348;28;20408;-80
2020/12/04 05:57:59;;;;;;;3.10;2.80;;;6.50;99.90;;;;;;5046764;28;20444;-80
2020/12/04 06:00:27;;;;;;;4.40;3.07;;;6.60;99.90;;;;;;5033142;28;20402;-79
2020/12/04 06:02:57;;;;;;;3.10;2.60;;;6.70;99.90;;;;;;5048542;28;20559;-79
2020/12/04 06:05:26;;;;;;;3.20;2.80;;;6.70;99.90;;;;;;5031666;28;20900;-80
2020/12/04 06:07:57;;;;;;;3.30;3.00;;;6.60;99.90;;;;;;5032152;28;20435;-79
2020/12/04 06:10:24;;;;;;;3.40;3.10;;;6.60;99.90;;;;;;5047123;28;20419;-80
2020/12/04 06:12:53;;;;;;;7.87;3.43;;;6.70;99.90;;;;;;5031330;28;20415;-79
2020/12/04 06:15:29;;;;;;;3.30;2.87;;;6.60;99.90;;;;;;5031346;28;20429;-79
2020/12/04 06:18:28;;;;;;;2.97;2.63;;;6.70;99.90;;;;;;5052787;28;21094;-80
2020/12/04 06:20:54;;;;;;;5.73;3.73;;;6.70;99.90;;;;;;4988781;28;20427;-79
2020/12/04 06:23:21;;;;;;;3.67;2.87;;;6.70;99.90;;;;;;4972200;28;20431;-79
2020/12/04 06:25:55;;;;;;;3.00;2.80;;;6.70;99.90;;;;;;4987045;28;20679;-79
2020/12/04 06:28:25;;;;;;;2.70;2.50;;;6.70;99.90;;;;;;4971963;28;20441;-79
2020/12/04 06:31:03;;;;;;;4.30;3.07;;;6.70;99.90;;;;;;4990732;28;20933;-81
2020/12/04 06:33:35;;;;;;;3.90;2.60;;;6.70;99.90;;;;;;4973661;28;20406;-79
2020/12/04 06:36:03;;;;;;;7.90;3.57;;;6.80;99.90;;;;;;4989433;28;21250;-80
2020/12/04 06:38:35;;;;;;;4.33;3.87;;;6.80;99.90;;;;;;4982057;28;20433;-79
2020/12/04 06:41:23;;;;;;;2.80;2.60;;;6.80;99.90;;;;;;4988729;28;20465;-80
2020/12/04 06:43:51;;;;;;;3.53;3.23;;;6.80;99.90;;;;;;4988472;28;20873;-80
2020/12/04 06:46:34;;;;;;;3.20;2.50;;;6.80;99.90;;;;;;4987379;28;20418;-80
2020/12/04 06:49:38;;;;;;;2.50;2.30;;;6.80;99.90;;;;;;4982068;28;20431;-79
2020/12/04 06:52:12;;;;;;;3.43;2.23;;;6.90;99.90;;;;;;4969078;28;20418;-80
2020/12/04 06:54:44;;;;;;;3.27;2.83;;;6.90;99.90;;;;;;4982299;28;20413;-79
2020/12/04 06:57:09;;;;;;;2.43;2.23;;;6.90;99.90;;;;;;4996353;28;20412;-80
2020/12/04 06:59:38;;;;;;;2.80;2.27;;;6.90;99.90;;;;;;5027372;28;20436;-79
2020/12/04 07:02:12;;;;;;;2.43;2.23;;;6.80;99.90;;;;;;5027858;28;20208;-79
2020/12/04 07:04:59;;;;;;;1.97;1.80;;;6.90;99.90;;;;;;5045279;28;20486;-80
2020/12/04 07:07:26;;;;;;;4.40;2.07;;;6.90;99.90;;;;;;5042912;28;20408;-80
2020/12/04 07:09:59;;;;;;;2.67;2.43;;;7.00;99.90;;;;;;5042643;28;20515;-79
2020/12/04 07:12:27;;;;;;;3.33;2.87;;;7.00;99.90;;;;;;5041764;28;20455;-80
2020/12/04 07:14:55;;;;;;;3.33;2.67;;;7.00;99.90;;;;;;5026448;28;20419;-80
2020/12/04 07:17:23;;;;;;;3.57;3.27;;;7.10;99.90;;;;;;5028778;28;20395;-79
2020/12/04 07:19:50;;;;;;;2.33;2.07;;;7.10;99.90;;;;;;5043210;28;21094;-80
2020/12/04 07:22:18;;;;;;;3.30;3.00;;;7.10;99.90;;;;;;5026903;28;20931;-81
2020/12/04 07:24:46;;;;;;;2.73;2.50;;;7.10;99.90;;;;;;5027913;28;20439;-81
2020/12/04 07:27:14;;;;;;;2.23;2.03;;;7.10;99.90;;;;;;5024260;28;20424;-80
2020/12/04 07:29:42;;;;;;;1.97;1.87;;;7.00;99.90;;;;;;5033386;28;20415;-80
2020/12/04 07:32:08;;;;;;;3.70;3.40;;;7.10;99.90;;;;;;5032470;28;20822;-81
2020/12/04 07:34:37;;;;;;;3.77;2.27;;;7.10;99.90;;;;;;5050509;28;22032;-81
2020/12/04 07:37:05;;;;;;;2.13;1.93;;;7.10;99.90;;;;;;5049495;28;20399;-80
2020/12/04 07:39:34;;;;;;;2.77;2.47;;;7.10;99.90;;;;;;5047876;28;20382;-80
2020/12/04 07:42:03;;;;;;;2.43;2.23;;;7.10;99.90;;;;;;5046788;28;20428;-79
2020/12/04 07:44:43;;;;;;;1.93;1.83;;;7.10;99.90;;;;;;5050608;28;20815;-80
2020/12/04 07:47:11;;;;;;;1.70;1.60;;;7.30;99.90;;;;;;5035756;28;20416;-80
2020/12/04 07:49:48;;;;;;;2.60;2.20;;;7.30;99.90;;;;;;5051814;28;20401;-80
2020/12/04 07:52:22;;;;;;;2.47;2.27;;;7.30;99.90;;;;;;5038226;28;20422;-81
2020/12/04 07:55:07;;;;;;;2.53;2.33;;;7.20;99.90;;;;;;5041353;28;20441;-81
2020/12/04 07:57:54;;;;;;;2.30;2.13;;;7.30;99.90;;;;;;5041138;28;20415;-80
2020/12/04 08:00:19;;;;;;;3.03;2.40;;;7.20;99.90;;;;;;5033833;28;20415;-79
2020/12/04 08:02:46;;;;;;;1.90;1.70;;;7.30;99.90;;;;;;5023780;28;20418;-79
2020/12/04 08:05:19;;;;;;;2.47;2.00;;;7.30;99.90;;;;;;5006698;28;20969;-80
2020/12/04 08:07:53;;;;;;;3.77;2.30;;;7.30;99.90;;;;;;5043746;28;20953;-80
2020/12/04 08:10:22;;;;;;;2.17;1.97;;;7.30;99.90;;;;;;5044351;28;20554;-81
2020/12/04 08:12:49;;;;;;;1.97;1.80;;;7.40;99.90;;;;;;5043814;28;20459;-81
2020/12/04 08:15:18;;;;;;;1.83;1.73;;;7.40;99.90;;;;;;5023178;28;20420;-80
2020/12/04 08:17:47;;;;;;;1.80;1.70;;;7.40;99.90;;;;;;5043271;28;20422;-80
2020/12/04 08:20:17;;;;;;;2.33;1.80;;;7.50;99.90;;;;;;5025550;28;20419;-81
2020/12/04 08:22:48;;;;;;;2.47;2.00;;;7.60;99.90;;;;;;5025892;28;21910;-81
2020/12/04 08:25:26;;;;;;;2.00;1.70;;;7.70;99.90;;;;;;5046261;28;21461;-81
2020/12/04 08:27:53;;;;;;;3.00;1.63;;;7.70;99.90;;;;;;5040923;28;21399;-81
2020/12/04 08:30:27;;;;;;;1.67;1.57;;;7.60;99.90;;;;;;5039897;28;20518;-81
2020/12/04 08:32:56;;;;;;;3.93;1.90;;;7.70;99.90;;;;;;5031192;28;20455;-81
2020/12/04 08:35:29;;;;;;;1.53;1.43;;;7.70;99.90;;;;;;5041499;28;20407;-81
2020/12/04 08:38:08;;;;;;;1.60;1.43;;;7.80;99.90;;;;;;5009425;28;20475;-81
2020/12/04 08:40:35;;;;;;;3.17;1.80;;;7.80;99.90;;;;;;5043137;28;20411;-81
2020/12/04 08:43:12;;;;;;;1.30;1.20;;;7.80;99.90;;;;;;5029202;28;20436;-81
2020/12/04 08:45:50;;;;;;;3.20;2.23;;;8.00;99.90;;;;;;5045065;28;20475;-81
2020/12/04 08:48:44;;;;;;;2.50;1.87;;;7.90;99.90;;;;;;5047877;28;20466;-81
2020/12/04 08:51:12;;;;;;;4.33;1.63;;;8.00;99.90;;;;;;4980997;28;20423;-81
2020/12/04 08:53:38;;;;;;;2.63;2.40;;;8.00;99.90;;;;;;4955624;28;20437;-81
2020/12/04 08:56:04;;;;;;;1.97;1.37;;;8.10;99.90;;;;;;4953033;28;20410;-81
2020/12/04 08:58:31;;;;;;;3.73;1.50;;;8.10;99.90;;;;;;4954541;28;20453;-81
2020/12/04 09:00:59;;;;;;;1.37;1.27;;;8.20;99.90;;;;;;4965357;28;20493;-81
2020/12/04 09:03:26;;;;;;;2.47;2.27;;;8.20;99.90;;;;;;4968164;28;21081;-81
2020/12/04 09:05:55;;;;;;;2.53;1.77;;;8.30;99.90;;;;;;4968103;28;21228;-81
2020/12/04 09:08:20;;;;;;;3.20;1.87;;;8.30;99.90;;;;;;4967693;28;20497;-81
2020/12/04 09:10:46;;;;;;;1.70;1.60;;;8.40;99.90;;;;;;4955820;28;20418;-81
2020/12/04 09:13:13;;;;;;;2.27;1.70;;;8.30;99.90;;;;;;4954751;28;20288;-81
2020/12/04 09:15:39;;;;;;;1.53;1.40;;;8.50;99.90;;;;;;4953433;28;20771;-81
2020/12/04 09:18:05;;;;;;;2.00;1.90;;;8.40;99.90;;;;;;4971378;28;20432;-81
2020/12/04 09:20:31;;;;;;;1.60;1.50;;;8.60;99.90;;;;;;4965122;28;20243;-80
2020/12/04 09:23:22;;;;;;;1.40;1.30;;;8.40;99.90;;;;;;4970386;28;20473;-80
2020/12/04 09:25:49;;;;;;;2.67;2.10;;;8.60;99.90;;;;;;4971442;28;20340;-80
2020/12/04 09:28:15;;;;;;;1.80;1.70;;;8.70;99.90;;;;;;4980983;28;20415;-80
2020/12/04 09:30:41;;;;;;;1.70;1.10;;;8.90;99.90;;;;;;5001775;28;20423;-82
2020/12/04 09:33:07;;;;;;;1.40;1.30;;;8.70;99.90;;;;;;4986376;28;20607;-82
2020/12/04 09:35:34;;;;;;;1.80;1.57;;;8.90;99.90;;;;;;4990944;28;20215;-82
2020/12/04 09:38:26;;;;;;;1.33;1.23;;;9.10;99.90;;;;;;4989085;28;20501;-80
2020/12/04 09:40:52;;;;;;;1.47;1.37;;;9.40;99.90;;;;;;4946026;28;20442;-81
2020/12/04 09:43:19;;;;;;;1.10;1.00;;;10.10;99.90;;;;;;4947032;28;20439;-82
2020/12/04 09:45:47;;;;;;;1.40;1.23;;;11.00;99.90;;;;;;4930018;28;20406;-81
2020/12/04 09:48:14;;;;;;;2.00;1.53;;;11.70;99.90;;;;;;4932921;28;20434;-81
2020/12/04 09:50:42;;;;;;;2.50;1.37;;;11.40;99.90;;;;;;4936053;28;20424;-82
2020/12/04 09:53:08;;;;;;;1.23;1.13;;;11.70;99.90;;;;;;4929200;28;20544;-81
2020/12/04 09:55:34;;;;;;;3.83;1.30;;;12.20;99.90;;;;;;4946754;28;20938;-81
2020/12/04 09:58:00;;;;;;;1.03;0.93;;;12.50;99.90;;;;;;4917220;28;21153;-82
2020/12/04 10:00:26;;;;;;;2.80;1.50;;;12.80;99.90;;;;;;4934028;28;20248;-82
2020/12/04 10:02:53;;;;;;;1.80;1.40;;;12.70;99.90;;;;;;4934782;28;20446;-82
2020/12/04 10:05:18;;;;;;;10.97;5.87;;;13.70;99.90;;;;;;4972777;28;20223;-83
2020/12/04 10:07:45;;;;;;;7.53;4.77;;;13.50;99.90;;;;;;4969219;28;20457;-82
2020/12/04 10:10:12;;;;;;;2.37;2.17;;;13.80;99.90;;;;;;4967434;28;20387;-83
2020/12/04 10:12:37;;;;;;;1.30;1.23;;;14.00;99.90;;;;;;4970574;28;20456;-83
2020/12/04 10:15:03;;;;;;;1.97;1.57;;;13.60;99.90;;;;;;4950116;28;20428;-83
2020/12/04 10:17:29;;;;;;;1.57;1.47;;;12.70;99.90;;;;;;5004390;28;20739;-83
2020/12/04 10:19:56;;;;;;;1.27;1.10;;;11.60;99.90;;;;;;5041958;28;20506;-82
2020/12/04 10:22:21;;;;;;;2.10;1.53;;;11.30;99.90;;;;;;5010194;28;20280;-83
2020/12/04 10:24:47;;;;;;;5.87;1.90;;;11.00;99.90;;;;;;5010564;28;20418;-82
2020/12/04 10:27:14;;;;;;;1.90;1.50;;;11.60;99.90;;;;;;5009608;28;20215;-82
2020/12/04 10:29:41;;;;;;;1.30;1.20;;;11.70;99.90;;;;;;5042386;28;20208;-82
2020/12/04 10:32:08;;;;;;;2.87;1.50;;;10.40;99.90;;;;;;5015812;28;20483;-83
2020/12/04 10:34:34;;;;;;;1.80;1.30;;;11.40;99.90;;;;;;5015986;28;20446;-82
2020/12/04 10:37:02;;;;;;;2.30;1.40;;;12.90;99.90;;;;;;5029454;28;20428;-83
2020/12/04 10:39:28;;;;;;;1.30;1.20;;;13.90;99.90;;;;;;5030737;28;20432;-82
2020/12/04 10:41:54;;;;;;;1.60;1.50;;;13.30;99.90;;;;;;5028273;28;20519;-82
2020/12/04 10:44:22;;;;;;;1.20;1.10;;;11.60;99.90;;;;;;5029345;28;20538;-83
2020/12/04 10:46:48;;;;;;;1.63;1.50;;;11.50;99.90;;;;;;5013324;28;20430;-83
2020/12/04 10:49:13;;;;;;;1.23;1.10;;;12.60;99.90;;;;;;5012350;28;20484;-83
2020/12/04 10:51:39;;;;;;;3.33;1.73;;;13.50;99.90;;;;;;5040861;28;20672;-83
2020/12/04 10:54:07;;;;;;;0.90;0.90;;;13.20;99.90;;;;;;4990725;28;20208;-83
2020/12/04 10:56:35;;;;;;;1.40;1.30;;;12.90;99.90;;;;;;5044811;28;20494;-82
2020/12/04 10:59:02;;;;;;;1.50;1.40;;;11.40;99.90;;;;;;5046129;28;20398;-82
2020/12/04 11:01:40;;;;;;;2.13;1.00;;;10.80;99.90;;;;;;5024493;28;20426;-82
2020/12/04 11:06:51;;;;;;;9.43;1.60;;;10.30;99.90;;;;;;5045480;28;20930;-83
2020/12/04 11:09:18;;;;;;;1.50;1.07;;;10.80;99.90;;;;;;4996557;28;20447;-82
2020/12/04 11:11:44;;;;;;;1.40;1.30;;;11.40;99.90;;;;;;5043983;28;20208;-82
2020/12/04 11:14:09;;;;;;;2.40;1.50;;;11.10;99.90;;;;;;5025408;28;20424;-82
2020/12/04 11:16:38;;;;;;;2.07;1.70;;;10.60;99.90;;;;;;5030007;28;20212;-82
2020/12/04 11:19:04;;;;;;;3.67;1.43;;;10.60;99.90;;;;;;5028475;28;20214;-82
2020/12/04 11:21:30;;;;;;;1.90;1.33;;;10.00;99.90;;;;;;5022473;28;20457;-83
2020/12/04 11:23:56;;;;;;;2.20;1.50;;;10.30;99.90;;;;;;5013405;28;20299;-82
2020/12/04 11:26:24;;;;;;;1.40;1.30;;;10.30;99.90;;;;;;5030200;28;20205;-82
2020/12/04 11:28:51;;;;;;;2.50;1.67;;;9.90;99.90;;;;;;5026409;28;20491;-82
2020/12/04 11:31:40;;;;;;;1.30;1.20;;;10.20;99.90;;;;;;5011915;28;20804;-82
2020/12/04 11:34:06;;;;;;;2.90;1.47;;;11.30;99.90;;;;;;4971835;28;20420;-83
2020/12/04 11:36:34;;;;;;;1.83;1.40;;;12.50;99.90;;;;;;4970730;28;21401;-82
2020/12/04 11:39:00;;;;;;;1.40;1.23;;;12.30;99.90;;;;;;4982702;28;20222;-82
2020/12/04 11:41:30;;;;;;;1.53;1.30;;;10.90;99.90;;;;;;4988370;28;20432;-82
2020/12/04 11:43:57;;;;;;;1.50;1.40;;;10.10;99.90;;;;;;4988795;28;22670;-82
2020/12/04 11:46:24;;;;;;;1.47;1.37;;;9.70;99.90;;;;;;4984873;28;20427;-82
2020/12/04 11:48:54;;;;;;;1.30;1.20;;;9.50;99.90;;;;;;4991284;28;20428;-82
2020/12/04 11:51:45;;;;;;;1.43;1.33;;;9.50;99.90;;;;;;4975669;28;20428;-82
2020/12/04 11:54:13;;;;;;;3.00;1.60;;;9.40;99.90;;;;;;4955690;28;20933;-82
2020/12/04 11:56:39;;;;;;;1.30;1.20;;;9.20;99.90;;;;;;4938780;28;20549;-82
2020/12/04 11:59:31;;;;;;;1.50;1.23;;;9.10;99.90;;;;;;4966901;28;20427;-82
2020/12/04 12:01:58;;;;;;;1.70;1.50;;;9.20;99.90;;;;;;4911773;29;20423;-82
2020/12/04 12:04:29;;;;;;;1.80;1.70;;;9.30;99.90;;;;;;4896957;29;20463;-83
2020/12/04 12:07:23;;;;;;;3.40;1.63;;;9.30;99.90;;;;;;4899024;29;20501;-82
2020/12/04 12:09:49;;;;;;;2.47;1.53;;;9.30;99.90;;;;;;4855699;29;20430;-83
2020/12/04 12:12:19;;;;;;;1.40;1.30;;;9.40;99.90;;;;;;4892046;29;20424;-83
2020/12/04 12:14:45;;;;;;;1.40;1.30;;;9.30;99.90;;;;;;4880302;29;20433;-82
2020/12/04 12:17:39;;;;;;;2.07;1.83;;;9.20;99.90;;;;;;4874129;29;20459;-83
2020/12/04 12:20:05;;;;;;;1.50;1.30;;;9.30;99.90;;;;;;4833838;29;20489;-82
2020/12/04 12:22:32;;;;;;;1.40;1.30;;;9.20;99.90;;;;;;4820580;29;20445;-82
2020/12/04 12:24:57;;;;;;;1.80;1.70;;;9.20;99.90;;;;;;4819351;29;20250;-81
2020/12/04 12:27:23;;;;;;;1.50;1.40;;;9.40;99.90;;;;;;4836411;29;20525;-82
2020/12/04 12:30:15;;;;;;;2.57;2.07;;;9.40;99.90;;;;;;4822619;29;20210;-82
2020/12/04 12:32:41;;;;;;;1.63;1.53;;;9.40;99.90;;;;;;4804829;29;20534;-82
2020/12/04 12:35:37;;;;;;;2.47;1.60;;;9.10;99.90;;;;;;4820176;29;20844;-82
2020/12/04 12:38:03;;;;;;;5.13;1.70;;;9.20;99.90;;;;;;4771620;29;20218;-82
2020/12/04 12:40:29;;;;;;;1.40;1.30;;;9.20;99.90;;;;;;4815857;29;20401;-81
2020/12/04 12:42:55;;;;;;;2.63;1.43;;;9.10;99.90;;;;;;4815720;29;20471;-83
2020/12/04 12:45:21;;;;;;;6.00;1.53;;;9.10;99.90;;;;;;4809180;29;20207;-82
2020/12/04 12:47:47;;;;;;;3.33;1.60;;;9.00;99.90;;;;;;4837811;29;20636;-83
2020/12/04 12:50:14;;;;;;;2.90;2.50;;;8.90;99.90;;;;;;4821906;29;20225;-82
2020/12/04 12:53:05;;;;;;;2.27;2.07;;;8.90;99.90;;;;;;4823067;29;20309;-83
2020/12/04 12:55:33;;;;;;;1.20;1.20;;;8.90;99.90;;;;;;4801487;29;20393;-83
2020/12/04 12:58:24;;;;;;;1.97;1.80;;;8.60;99.90;;;;;;4829995;29;20504;-82
2020/12/04 13:00:50;;;;;;;1.57;1.40;;;8.70;99.90;;;;;;4798749;29;20403;-82
2020/12/04 13:03:16;;;;;;;1.80;1.67;;;8.60;99.90;;;;;;4799836;29;20459;-82
2020/12/04 13:05:41;;;;;;;1.40;1.30;;;8.70;99.90;;;;;;4797089;29;20393;-82
2020/12/04 13:08:10;;;;;;;1.80;1.70;;;8.60;99.90;;;;;;4800008;29;20227;-82
2020/12/04 13:10:36;;;;;;;3.40;2.20;;;8.70;99.90;;;;;;4831622;29;21086;-82